sensor_id;sensor_type;location;lat;lon;timestamp;pressure;altitude;pressure_sealevel;temperature;humidity
43119;BME280;28729;49.838;8.650;2022-12-07T00:03:56;99920.44;;;5.06;100.00
43119;BME280;28729;49.838;8.650;2022-12-07T00:08:02;99925.69;;;5.07;100.00
43119;BME280;28729;49.838;8.650;2022-12-07T00:12:04;99918.97;;;5.10;100.00
43119;BME280;28729;49.838;8.650;2022-12-07T00:16:09;99922.34;;;5.12;100.00
43119;BME280;28729;49.838;8.650;2022-12-07T00:20:11;99915.81;;;5.13;100.00
43119;BME280;28729;49.838;8.650;2022-12-07T00:24:13;99909.28;;;5.14;100.00
43119;BME280;28729;49.838;8.650;2022-12-07T00:28:14;99913.09;;;5.13;100.00
43119;BME280;28729;49.838;8.650;2022-12-07T00:32:17;99902.38;;;5.11;100.00
43119;BME280;28729;49.838;8.650;2022-12-07T00:36:22;99905.09;;;5.11;100.00
43119;BME280;28729;49.838;8.650;2022-12-07T00:40:27;99901.53;;;5.11;100.00
43119;BME280;28729;49.838;8.650;2022-12-07T00:44:29;99897.13;;;5.10;100.00
43119;BME280;28729;49.838;8.650;2022-12-07T00:48:31;99892.72;;;5.09;100.00
43119;BME280;28729;49.838;8.650;2022-12-07T00:52:33;99892.28;;;5.05;100.00
43119;BME280;28729;49.838;8.650;2022-12-07T00:56:34;99881.19;;;5.00;100.00
43119;BME280;28729;49.838;8.650;2022-12-07T01:00:37;99875.72;;;5.00;100.00
43119;BME280;28729;49.838;8.650;2022-12-07T01:04:39;99876.56;;;5.00;100.00
43119;BME280;28729;49.838;8.650;2022-12-07T01:08:41;99884.53;;;4.95;100.00
43119;BME280;28729;49.838;8.650;2022-12-07T01:12:42;99876.56;;;4.87;100.00
43119;BME280;28729;49.838;8.650;2022-12-07T01:16:44;99871.94;;;4.81;100.00
43119;BME280;28729;49.838;8.650;2022-12-07T01:20:57;99862.28;;;4.78;100.00
43119;BME280;28729;49.838;8.650;2022-12-07T01:24:59;99863.13;;;4.79;100.00
43119;BME280;28729;49.838;8.650;2022-12-07T01:29:02;99868.16;;;4.75;100.00
43119;BME280;28729;49.838;8.650;2022-12-07T01:33:04;99868.38;;;4.74;100.00
43119;BME280;28729;49.838;8.650;2022-12-07T01:37:06;99863.34;;;4.71;100.00
43119;BME280;28729;49.838;8.650;2022-12-07T01:41:08;99878.03;;;4.70;100.00
43119;BME280;28729;49.838;8.650;2022-12-07T01:54:05;99873.84;;;4.67;100.00
43119;BME280;28729;49.838;8.650;2022-12-07T01:58:30;99877.00;;;4.64;100.00
43119;BME280;28729;49.838;8.650;2022-12-07T02:02:38;99892.50;;;4.64;100.00
43119;BME280;28729;49.838;8.650;2022-12-07T02:06:42;99882.00;;;4.61;100.00
43119;BME280;28729;49.838;8.650;2022-12-07T02:10:45;99883.28;;;4.58;100.00
43119;BME280;28729;49.838;8.650;2022-12-07T02:14:47;99875.72;;;4.60;100.00
43119;BME280;28729;49.838;8.650;2022-12-07T02:28:03;99844.66;;;4.61;100.00
43119;BME280;28729;49.838;8.650;2022-12-07T02:32:17;99843.81;;;4.67;100.00
43119;BME280;28729;49.838;8.650;2022-12-07T02:36:29;99850.53;;;4.65;100.00
43119;BME280;28729;49.838;8.650;2022-12-07T02:40:40;99848.66;;;4.65;100.00
43119;BME280;28729;49.838;8.650;2022-12-07T02:44:45;99845.06;;;4.65;100.00
43119;BME280;28729;49.838;8.650;2022-12-07T02:48:49;99851.78;;;4.62;100.00
43119;BME280;28729;49.838;8.650;2022-12-07T02:52:51;99836.25;;;4.63;100.00
43119;BME280;28729;49.838;8.650;2022-12-07T02:57:22;99827.84;;;4.57;100.00
43119;BME280;28729;49.838;8.650;2022-12-07T03:10:14;99830.38;;;4.59;100.00
43119;BME280;28729;49.838;8.650;2022-12-07T03:14:25;99839.00;;;4.56;100.00
43119;BME280;28729;49.838;8.650;2022-12-07T03:18:33;99835.00;;;4.59;100.00
43119;BME280;28729;49.838;8.650;2022-12-07T03:22:38;99836.03;;;4.57;100.00
43119;BME280;28729;49.838;8.650;2022-12-07T03:26:44;99837.09;;;4.56;100.00
43119;BME280;28729;49.838;8.650;2022-12-07T03:30:55;99833.72;;;4.54;100.00
43119;BME280;28729;49.838;8.650;2022-12-07T03:35:16;99832.25;;;4.52;100.00
43119;BME280;28729;49.838;8.650;2022-12-07T03:39:28;99831.00;;;4.54;100.00
43119;BME280;28729;49.838;8.650;2022-12-07T03:43:32;99831.22;;;4.60;100.00
43119;BME280;28729;49.838;8.650;2022-12-07T03:47:46;99822.41;;;4.64;100.00
43119;BME280;28729;49.838;8.650;2022-12-07T03:56:20;99822.59;;;4.63;100.00
43119;BME280;28729;49.838;8.650;2022-12-07T04:00:23;99825.75;;;4.60;100.00
43119;BME280;28729;49.838;8.650;2022-12-07T04:04:25;99816.94;;;4.57;100.00
43119;BME280;28729;49.838;8.650;2022-12-07T04:08:27;99824.28;;;4.50;100.00
43119;BME280;28729;49.838;8.650;2022-12-07T04:12:28;99820.72;;;4.50;100.00
43119;BME280;28729;49.838;8.650;2022-12-07T04:16:30;99820.91;;;4.55;100.00
43119;BME280;28729;49.838;8.650;2022-12-07T04:20:31;99814.84;;;4.60;100.00
43119;BME280;28729;49.838;8.650;2022-12-07T04:24:33;99819.88;;;4.63;100.00
43119;BME280;28729;49.838;8.650;2022-12-07T04:28:35;99811.91;;;4.61;100.00
43119;BME280;28729;49.838;8.650;2022-12-07T04:32:37;99810.44;;;4.59;100.00
43119;BME280;28729;49.838;8.650;2022-12-07T04:36:39;99822.81;;;4.54;100.00
43119;BME280;28729;49.838;8.650;2022-12-07T04:40:41;99811.06;;;4.47;100.00
43119;BME280;28729;49.838;8.650;2022-12-07T04:44:42;99819.66;;;4.51;100.00
43119;BME280;28729;49.838;8.650;2022-12-07T04:48:44;99811.91;;;4.54;100.00
43119;BME280;28729;49.838;8.650;2022-12-07T04:52:46;99814.19;;;4.57;100.00
43119;BME280;28729;49.838;8.650;2022-12-07T04:56:48;99810.63;;;4.57;100.00
43119;BME280;28729;49.838;8.650;2022-12-07T05:00:53;99807.47;;;4.60;100.00
43119;BME280;28729;49.838;8.650;2022-12-07T05:04:56;99804.75;;;4.67;100.00
43119;BME280;28729;49.838;8.650;2022-12-07T05:09:05;99804.97;;;4.72;100.00
43119;BME280;28729;49.838;8.650;2022-12-07T05:13:07;99810.63;;;4.77;100.00
43119;BME280;28729;49.838;8.650;2022-12-07T05:17:09;99804.75;;;4.73;100.00
43119;BME280;28729;49.838;8.650;2022-12-07T05:21:10;99807.69;;;4.72;100.00
43119;BME280;28729;49.838;8.650;2022-12-07T05:25:12;99804.97;;;4.72;100.00
43119;BME280;28729;49.838;8.650;2022-12-07T05:29:15;99808.09;;;4.69;100.00
43119;BME280;28729;49.838;8.650;2022-12-07T05:33:18;99813.56;;;4.69;100.00
43119;BME280;28729;49.838;8.650;2022-12-07T05:37:20;99809.78;;;4.70;100.00
43119;BME280;28729;49.838;8.650;2022-12-07T05:41:22;99803.28;;;4.71;100.00
43119;BME280;28729;49.838;8.650;2022-12-07T05:45:43;99803.91;;;4.66;100.00
43119;BME280;28729;49.838;8.650;2022-12-07T05:49:45;99811.03;;;4.61;100.00
43119;BME280;28729;49.838;8.650;2022-12-07T05:53:48;99806.88;;;4.58;100.00
43119;BME280;28729;49.838;8.650;2022-12-07T05:57:50;99807.91;;;4.57;100.00
43119;BME280;28729;49.838;8.650;2022-12-07T06:02:13;99798.88;;;4.56;100.00
43119;BME280;28729;49.838;8.650;2022-12-07T06:06:18;99802.03;;;4.60;100.00
43119;BME280;28729;49.838;8.650;2022-12-07T06:10:20;99793.66;;;4.62;100.00
43119;BME280;28729;49.838;8.650;2022-12-07T06:14:24;99800.34;;;4.66;100.00
43119;BME280;28729;49.838;8.650;2022-12-07T06:18:27;99800.56;;;4.64;100.00
43119;BME280;28729;49.838;8.650;2022-12-07T06:22:36;99791.75;;;4.62;100.00
43119;BME280;28729;49.838;8.650;2022-12-07T06:27:25;99800.34;;;4.66;100.00
43119;BME280;28729;49.838;8.650;2022-12-07T06:31:54;99810.00;;;4.68;100.00
43119;BME280;28729;49.838;8.650;2022-12-07T06:36:37;99805.59;;;4.67;100.00
43119;BME280;28729;49.838;8.650;2022-12-07T06:40:39;99804.97;;;4.72;100.00
43119;BME280;28729;49.838;8.650;2022-12-07T06:44:41;99808.53;;;4.79;100.00
43119;BME280;28729;49.838;8.650;2022-12-07T06:48:43;99808.53;;;4.79;100.00
43119;BME280;28729;49.838;8.650;2022-12-07T06:52:45;99807.25;;;4.88;100.00
43119;BME280;28729;49.838;8.650;2022-12-07T06:56:47;99810.59;;;4.90;100.00
43119;BME280;28729;49.838;8.650;2022-12-07T07:00:49;99809.13;;;4.94;100.00
43119;BME280;28729;49.838;8.650;2022-12-07T07:04:51;99812.06;;;4.93;100.00
43119;BME280;28729;49.838;8.650;2022-12-07T07:08:53;99819.81;;;4.96;100.00
43119;BME280;28729;49.838;8.650;2022-12-07T07:12:55;99823.84;;;5.00;100.00
43119;BME280;28729;49.838;8.650;2022-12-07T07:16:58;99822.53;;;5.02;100.00
43119;BME280;28729;49.838;8.650;2022-12-07T07:21:00;99825.69;;;4.99;100.00
43119;BME280;28729;49.838;8.650;2022-12-07T07:25:05;99820.66;;;4.96;100.00
43119;BME280;28729;49.838;8.650;2022-12-07T07:29:07;99818.13;;;5.01;100.00
43119;BME280;28729;49.838;8.650;2022-12-07T07:33:09;99819.38;;;5.06;100.00
43119;BME280;28729;49.838;8.650;2022-12-07T07:37:11;99828.22;;;5.08;100.00
43119;BME280;28729;49.838;8.650;2022-12-07T07:41:22;99837.03;;;5.10;100.00
43119;BME280;28729;49.838;8.650;2022-12-07T07:45:24;99830.94;;;5.21;100.00
43119;BME280;28729;49.838;8.650;2022-12-07T07:49:27;99834.50;;;5.21;100.00
43119;BME280;28729;49.838;8.650;2022-12-07T07:53:29;99834.09;;;5.18;100.00
43119;BME280;28729;49.838;8.650;2022-12-07T07:57:30;99839.97;;;5.15;100.00
43119;BME280;28729;49.838;8.650;2022-12-07T08:01:32;99843.31;;;5.17;100.00
43119;BME280;28729;49.838;8.650;2022-12-07T08:05:36;99835.94;;;5.17;100.00
43119;BME280;28729;49.838;8.650;2022-12-07T08:09:38;99846.25;;;5.22;100.00
43119;BME280;28729;49.838;8.650;2022-12-07T08:13:47;99837.00;;;5.30;100.00
43119;BME280;28729;49.838;8.650;2022-12-07T08:17:49;99838.88;;;5.36;100.00
43119;BME280;28729;49.838;8.650;2022-12-07T08:21:51;99844.50;;;5.47;100.00
43119;BME280;28729;49.838;8.650;2022-12-07T08:25:53;99842.56;;;5.55;100.00
43119;BME280;28729;49.838;8.650;2022-12-07T08:29:54;99846.09;;;5.62;100.00
43119;BME280;28729;49.838;8.650;2022-12-07T08:33:56;99846.53;;;5.65;100.00
43119;BME280;28729;49.838;8.650;2022-12-07T08:37:58;99849.47;;;5.64;100.00
43119;BME280;28729;49.838;8.650;2022-12-07T08:42:00;99846.09;;;5.68;100.00
43119;BME280;28729;49.838;8.650;2022-12-07T08:50:54;99845.88;;;5.70;100.00
43119;BME280;28729;49.838;8.650;2022-12-07T08:54:56;99849.44;;;5.70;100.00
43119;BME280;28729;49.838;8.650;2022-12-07T08:58:59;99846.94;;;5.69;100.00
43119;BME280;28729;49.838;8.650;2022-12-07T09:03:03;99852.84;;;5.66;100.00
43119;BME280;28729;49.838;8.650;2022-12-07T09:07:05;99847.53;;;5.71;100.00
43119;BME280;28729;49.838;8.650;2022-12-07T09:11:07;99847.97;;;5.75;100.00
43119;BME280;28729;49.838;8.650;2022-12-07T09:15:09;99849.59;;;5.82;100.00
43119;BME280;28729;49.838;8.650;2022-12-07T09:19:11;99854.41;;;5.93;100.00
43119;BME280;28729;49.838;8.650;2022-12-07T09:23:12;99854.75;;;6.10;100.00
43119;BME280;28729;49.838;8.650;2022-12-07T09:27:14;99856.56;;;6.23;100.00
43119;BME280;28729;49.838;8.650;2022-12-07T09:31:16;99863.25;;;6.27;100.00
43119;BME280;28729;49.838;8.650;2022-12-07T09:35:27;99856.63;;;6.42;100.00
43119;BME280;28729;49.838;8.650;2022-12-07T09:39:29;99853.19;;;6.53;100.00
43119;BME280;28729;49.838;8.650;2022-12-07T09:43:31;99845.75;;;6.60;100.00
43119;BME280;28729;49.838;8.650;2022-12-07T09:47:33;99852.78;;;6.74;100.00
43119;BME280;28729;49.838;8.650;2022-12-07T09:51:35;99844.50;;;6.81;100.00
43119;BME280;28729;49.838;8.650;2022-12-07T09:55:38;99846.00;;;7.02;100.00
43119;BME280;28729;49.838;8.650;2022-12-07T09:59:40;99839.78;;;7.13;100.00
43119;BME280;28729;49.838;8.650;2022-12-07T10:03:49;99848.84;;;7.14;100.00
43119;BME280;28729;49.838;8.650;2022-12-07T10:07:56;99843.81;;;7.11;100.00
43119;BME280;28729;49.838;8.650;2022-12-07T10:12:09;99839.94;;;7.18;100.00
43119;BME280;28729;49.838;8.650;2022-12-07T10:20:26;99822.66;;;7.18;100.00
43119;BME280;28729;49.838;8.650;2022-12-07T10:24:28;99818.72;;;7.32;100.00
43119;BME280;28729;49.838;8.650;2022-12-07T10:28:35;99815.81;;;7.45;100.00
43119;BME280;28729;49.838;8.650;2022-12-07T10:32:42;99815.97;;;7.50;100.00
43119;BME280;28729;49.838;8.650;2022-12-07T10:36:44;99817.00;;;7.49;100.00
43119;BME280;28729;49.838;8.650;2022-12-07T10:40:46;99816.72;;;7.39;100.00
43119;BME280;28729;49.838;8.650;2022-12-07T10:44:50;99813.53;;;7.24;100.00
43119;BME280;28729;49.838;8.650;2022-12-07T10:57:57;99803.25;;;7.56;100.00
43119;BME280;28729;49.838;8.650;2022-12-07T11:06:40;99799.13;;;7.65;100.00
43119;BME280;28729;49.838;8.650;2022-12-07T11:10:54;99779.69;;;7.67;100.00
43119;BME280;28729;49.838;8.650;2022-12-07T11:15:04;99772.56;;;7.78;100.00
43119;BME280;28729;49.838;8.650;2022-12-07T11:19:17;99768.78;;;7.90;100.00
43119;BME280;28729;49.838;8.650;2022-12-07T11:27:41;99773.06;;;8.16;100.00
43119;BME280;28729;49.838;8.650;2022-12-07T11:36:44;99760.28;;;8.10;100.00
43119;BME280;28729;49.838;8.650;2022-12-07T11:40:49;99749.69;;;8.26;100.00
43119;BME280;28729;49.838;8.650;2022-12-07T11:45:33;99748.84;;;8.25;100.00
43119;BME280;28729;49.838;8.650;2022-12-07T11:54:15;99747.47;;;8.46;100.00
43119;BME280;28729;49.838;8.650;2022-12-07T12:02:58;99740.72;;;8.18;98.69
43119;BME280;28729;49.838;8.650;2022-12-07T12:07:02;99732.47;;;8.07;99.83
43119;BME280;28729;49.838;8.650;2022-12-07T12:24:03;99725.13;;;7.77;100.00
43119;BME280;28729;49.838;8.650;2022-12-07T12:28:30;99727.84;;;7.77;100.00
43119;BME280;28729;49.838;8.650;2022-12-07T12:32:44;99713.41;;;7.82;100.00
43119;BME280;28729;49.838;8.650;2022-12-07T12:36:46;99715.38;;;7.93;100.00
43119;BME280;28729;49.838;8.650;2022-12-07T12:40:48;99712.41;;;7.94;100.00
43119;BME280;28729;49.838;8.650;2022-12-07T12:45:05;99709.28;;;7.91;100.00
43119;BME280;28729;49.838;8.650;2022-12-07T12:53:24;99695.53;;;7.79;100.00
43119;BME280;28729;49.838;8.650;2022-12-07T12:57:28;99686.94;;;7.75;100.00
43119;BME280;28729;49.838;8.650;2022-12-07T13:01:39;99683.22;;;7.70;100.00
43119;BME280;28729;49.838;8.650;2022-12-07T13:05:41;99678.56;;;7.59;100.00
43119;BME280;28729;49.838;8.650;2022-12-07T13:09:44;99675.78;;;7.47;100.00
43119;BME280;28729;49.838;8.650;2022-12-07T13:13:46;99682.88;;;7.36;100.00
43119;BME280;28729;49.838;8.650;2022-12-07T13:18:00;99690.09;;;7.30;100.00
43119;BME280;28729;49.838;8.650;2022-12-07T13:22:02;99681.22;;;7.17;100.00
43119;BME280;28729;49.838;8.650;2022-12-07T13:26:18;99679.94;;;7.01;100.00
43119;BME280;28729;49.838;8.650;2022-12-07T13:30:21;99682.38;;;7.09;100.00
43119;BME280;28729;49.838;8.650;2022-12-07T13:34:40;99670.22;;;7.05;100.00
43119;BME280;28729;49.838;8.650;2022-12-07T13:38:49;99674.84;;;7.04;100.00
43119;BME280;28729;49.838;8.650;2022-12-07T13:43:04;99666.78;;;7.10;100.00
43119;BME280;28729;49.838;8.650;2022-12-07T13:47:32;99673.59;;;7.19;100.00
43119;BME280;28729;49.838;8.650;2022-12-07T13:51:37;99673.41;;;7.20;100.00
43119;BME280;28729;49.838;8.650;2022-12-07T13:55:44;99669.41;;;7.16;100.00
43119;BME280;28729;49.838;8.650;2022-12-07T13:59:54;99660.38;;;7.16;100.00
43119;BME280;28729;49.838;8.650;2022-12-07T14:04:16;99657.53;;;7.22;100.00
43119;BME280;28729;49.838;8.650;2022-12-07T14:12:19;99661.16;;;7.35;100.00
43119;BME280;28729;49.838;8.650;2022-12-07T14:16:30;99664.75;;;7.35;100.00
43119;BME280;28729;49.838;8.650;2022-12-07T14:20:37;99658.88;;;7.31;100.00
43119;BME280;28729;49.838;8.650;2022-12-07T14:24:42;99656.03;;;7.26;100.00
43119;BME280;28729;49.838;8.650;2022-12-07T14:28:45;99653.97;;;7.22;100.00
43119;BME280;28729;49.838;8.650;2022-12-07T14:32:59;99653.13;;;7.21;100.00
43119;BME280;28729;49.838;8.650;2022-12-07T14:37:01;99664.09;;;7.21;100.00
43119;BME280;28729;49.838;8.650;2022-12-07T14:41:04;99653.13;;;7.21;100.00
43119;BME280;28729;49.838;8.650;2022-12-07T14:45:26;99656.56;;;7.17;100.00
43119;BME280;28729;49.838;8.650;2022-12-07T14:49:28;99649.03;;;7.12;100.00
43119;BME280;28729;49.838;8.650;2022-12-07T14:53:36;99660.56;;;7.02;100.00
43119;BME280;28729;49.838;8.650;2022-12-07T14:57:44;99645.72;;;6.92;100.00
43119;BME280;28729;49.838;8.650;2022-12-07T15:01:45;99646.03;;;6.83;100.00
43119;BME280;28729;49.838;8.650;2022-12-07T15:05:47;99642.69;;;6.81;100.00
43119;BME280;28729;49.838;8.650;2022-12-07T15:09:49;99650.75;;;6.76;100.00
43119;BME280;28729;49.838;8.650;2022-12-07T15:13:51;99637.53;;;6.73;100.00
43119;BME280;28729;49.838;8.650;2022-12-07T15:18:13;99646.19;;;6.70;100.00
43119;BME280;28729;49.838;8.650;2022-12-07T15:22:15;99641.63;;;6.64;100.00
43119;BME280;28729;49.838;8.650;2022-12-07T15:26:17;99638.06;;;6.64;100.00
43119;BME280;28729;49.838;8.650;2022-12-07T15:30:18;99648.03;;;6.58;100.00
43119;BME280;28729;49.838;8.650;2022-12-07T15:34:27;99643.06;;;6.48;100.00
43119;BME280;28729;49.838;8.650;2022-12-07T15:38:39;99626.34;;;6.38;100.00
43119;BME280;28729;49.838;8.650;2022-12-07T15:43:02;99624.28;;;6.33;100.00
43119;BME280;28729;49.838;8.650;2022-12-07T15:47:04;99621.53;;;6.33;100.00
43119;BME280;28729;49.838;8.650;2022-12-07T15:51:08;99616.06;;;6.33;100.00
43119;BME280;28729;49.838;8.650;2022-12-07T15:55:10;99620.94;;;6.31;100.00
43119;BME280;28729;49.838;8.650;2022-12-07T15:59:12;99614.56;;;6.37;100.00
43119;BME280;28729;49.838;8.650;2022-12-07T16:03:14;99621.03;;;6.43;100.00
43119;BME280;28729;49.838;8.650;2022-12-07T16:07:17;99614.09;;;6.41;100.00
43119;BME280;28729;49.838;8.650;2022-12-07T16:11:20;99604.59;;;6.43;100.00
43119;BME280;28729;49.838;8.650;2022-12-07T16:15:21;99604.38;;;6.45;100.00
43119;BME280;28729;49.838;8.650;2022-12-07T16:19:25;99608.47;;;6.35;100.00
43119;BME280;28729;49.838;8.650;2022-12-07T16:23:27;99601.53;;;6.33;100.00
43119;BME280;28729;49.838;8.650;2022-12-07T16:27:29;99603.69;;;6.31;100.00
43119;BME280;28729;49.838;8.650;2022-12-07T16:31:31;99595.03;;;6.34;100.00
43119;BME280;28729;49.838;8.650;2022-12-07T16:35:33;99606.97;;;6.39;100.00
43119;BME280;28729;49.838;8.650;2022-12-07T16:39:34;99619.66;;;6.34;100.00
43119;BME280;28729;49.838;8.650;2022-12-07T16:43:36;99614.69;;;6.24;100.00
43119;BME280;28729;49.838;8.650;2022-12-07T16:47:38;99610.66;;;6.27;100.00
43119;BME280;28729;49.838;8.650;2022-12-07T16:51:40;99606.19;;;6.32;100.00
43119;BME280;28729;49.838;8.650;2022-12-07T16:55:44;99610.81;;;6.32;100.00
43119;BME280;28729;49.838;8.650;2022-12-07T16:59:46;99601.16;;;6.29;100.00
43119;BME280;28729;49.838;8.650;2022-12-07T17:03:48;99601.78;;;6.31;100.00
43119;BME280;28729;49.838;8.650;2022-12-07T17:07:50;99602.25;;;6.28;100.00
43119;BME280;28729;49.838;8.650;2022-12-07T17:11:52;99599.97;;;6.25;100.00
43119;BME280;28729;49.838;8.650;2022-12-07T17:15:58;99596.59;;;6.23;100.00
43119;BME280;28729;49.838;8.650;2022-12-07T17:20:00;99601.69;;;6.20;100.00
43119;BME280;28729;49.838;8.650;2022-12-07T17:24:05;99594.78;;;6.17;100.00
43119;BME280;28729;49.838;8.650;2022-12-07T17:28:06;99599.63;;;6.15;100.00
43119;BME280;28729;49.838;8.650;2022-12-07T17:32:08;99600.09;;;6.12;100.00
43119;BME280;28729;49.838;8.650;2022-12-07T17:36:21;99602.69;;;6.07;100.00
43119;BME280;28729;49.838;8.650;2022-12-07T17:40:23;99594.31;;;6.02;100.00
43119;BME280;28729;49.838;8.650;2022-12-07T17:44:26;99597.63;;;6.04;100.00
43119;BME280;28729;49.838;8.650;2022-12-07T17:48:28;99602.88;;;6.05;100.00
43119;BME280;28729;49.838;8.650;2022-12-07T17:52:30;99593.63;;;6.06;100.00
43119;BME280;28729;49.838;8.650;2022-12-07T17:56:50;99581.84;;;6.06;100.00
43119;BME280;28729;49.838;8.650;2022-12-07T18:00:52;99571.97;;;6.05;100.00
43119;BME280;28729;49.838;8.650;2022-12-07T18:04:54;99579.56;;;6.03;100.00
43119;BME280;28729;49.838;8.650;2022-12-07T18:08:56;99572.44;;;6.02;100.00
43119;BME280;28729;49.838;8.650;2022-12-07T18:12:58;99572.88;;;5.99;100.00
43119;BME280;28729;49.838;8.650;2022-12-07T18:17:18;99565.13;;;5.96;100.00
43119;BME280;28729;49.838;8.650;2022-12-07T18:21:22;99553.34;;;5.95;100.00
43119;BME280;28729;49.838;8.650;2022-12-07T18:25:25;99562.38;;;5.96;100.00
43119;BME280;28729;49.838;8.650;2022-12-07T18:29:26;99565.13;;;5.96;100.00
43119;BME280;28729;49.838;8.650;2022-12-07T18:33:28;99552.72;;;5.93;100.00
43119;BME280;28729;49.838;8.650;2022-12-07T18:37:29;99551.03;;;5.92;100.00
43119;BME280;28729;49.838;8.650;2022-12-07T18:41:32;99548.50;;;5.90;100.00
43119;BME280;28729;49.838;8.650;2022-12-07T18:45:35;99552.78;;;5.86;100.00
43119;BME280;28729;49.838;8.650;2022-12-07T18:49:36;99554.13;;;5.77;100.00
43119;BME280;28729;49.838;8.650;2022-12-07T18:53:39;99553.78;;;5.67;100.00
43119;BME280;28729;49.838;8.650;2022-12-07T18:57:41;99557.13;;;5.69;100.00
43119;BME280;28729;49.838;8.650;2022-12-07T19:01:51;99552.25;;;5.71;100.00
43119;BME280;28729;49.838;8.650;2022-12-07T19:05:54;99543.22;;;5.70;100.00
43119;BME280;28729;49.838;8.650;2022-12-07T19:09:58;99542.47;;;5.63;100.00
43119;BME280;28729;49.838;8.650;2022-12-07T19:14:00;99542.09;;;5.60;100.00
43119;BME280;28729;49.838;8.650;2022-12-07T19:18:01;99542.97;;;5.54;100.00
43119;BME280;28729;49.838;8.650;2022-12-07T19:22:04;99534.44;;;5.43;100.00
43119;BME280;28729;49.838;8.650;2022-12-07T19:26:06;99537.28;;;5.30;100.00
43119;BME280;28729;49.838;8.650;2022-12-07T19:30:08;99540.06;;;5.23;100.00
43119;BME280;28729;49.838;8.650;2022-12-07T19:34:13;99542.63;;;5.18;100.00
43119;BME280;28729;49.838;8.650;2022-12-07T19:38:16;99537.81;;;5.14;100.00
43119;BME280;28729;49.838;8.650;2022-12-07T19:42:18;99537.22;;;5.12;100.00
43119;BME280;28729;49.838;8.650;2022-12-07T19:46:20;99545.00;;;5.08;100.00
43119;BME280;28729;49.838;8.650;2022-12-07T19:50:21;99538.69;;;5.08;100.00
43119;BME280;28729;49.838;8.650;2022-12-07T19:54:26;99535.13;;;5.07;100.00
43119;BME280;28729;49.838;8.650;2022-12-07T19:58:28;99530.69;;;5.13;100.00
43119;BME280;28729;49.838;8.650;2022-12-07T20:02:31;99526.06;;;5.13;100.00
43119;BME280;28729;49.838;8.650;2022-12-07T20:06:33;99523.94;;;5.15;100.00
43119;BME280;28729;49.838;8.650;2022-12-07T20:10:37;99528.59;;;5.15;100.00
43119;BME280;28729;49.838;8.650;2022-12-07T20:14:39;99522.25;;;5.14;100.00
43119;BME280;28729;49.838;8.650;2022-12-07T20:18:41;99519.13;;;5.11;100.00
43119;BME280;28729;49.838;8.650;2022-12-07T20:22:42;99517.25;;;5.11;100.00
43119;BME280;28729;49.838;8.650;2022-12-07T20:26:46;99513.91;;;5.09;100.00
43119;BME280;28729;49.838;8.650;2022-12-07T20:30:51;99506.31;;;5.11;100.00
43119;BME280;28729;49.838;8.650;2022-12-07T20:34:53;99497.72;;;5.08;100.00
43119;BME280;28729;49.838;8.650;2022-12-07T20:38:58;99488.72;;;5.07;100.00
43119;BME280;28729;49.838;8.650;2022-12-07T20:43:01;99510.75;;;5.06;100.00
43119;BME280;28729;49.838;8.650;2022-12-07T20:47:04;99506.38;;;5.05;100.00
43119;BME280;28729;49.838;8.650;2022-12-07T20:51:05;99505.53;;;5.04;100.00
43119;BME280;28729;49.838;8.650;2022-12-07T20:55:07;99500.13;;;4.97;100.00
43119;BME280;28729;49.838;8.650;2022-12-07T20:59:12;99498.88;;;4.93;100.00
43119;BME280;28729;49.838;8.650;2022-12-07T21:03:14;99495.56;;;4.91;100.00
43119;BME280;28729;49.838;8.650;2022-12-07T21:07:15;99495.31;;;4.93;100.00
43119;BME280;28729;49.838;8.650;2022-12-07T21:11:18;99490.69;;;4.93;100.00
43119;BME280;28729;49.838;8.650;2022-12-07T21:15:22;99490.69;;;4.93;100.00
43119;BME280;28729;49.838;8.650;2022-12-07T21:19:23;99473.28;;;4.94;100.00
43119;BME280;28729;49.838;8.650;2022-12-07T21:23:25;99479.78;;;4.93;100.00
43119;BME280;28729;49.838;8.650;2022-12-07T21:27:27;99473.09;;;4.89;100.00
43119;BME280;28729;49.838;8.650;2022-12-07T21:31:28;99467.44;;;4.91;100.00
43119;BME280;28729;49.838;8.650;2022-12-07T21:35:30;99469.28;;;4.90;100.00
43119;BME280;28729;49.838;8.650;2022-12-07T21:39:32;99462.78;;;4.91;100.00
43119;BME280;28729;49.838;8.650;2022-12-07T21:43:34;99456.88;;;4.94;100.00
43119;BME280;28729;49.838;8.650;2022-12-07T21:47:35;99454.31;;;4.99;100.00
43119;BME280;28729;49.838;8.650;2022-12-07T21:51:38;99451.13;;;5.02;100.00
43119;BME280;28729;49.838;8.650;2022-12-07T21:55:40;99452.00;;;5.03;100.00
43119;BME280;28729;49.838;8.650;2022-12-07T21:59:42;99458.28;;;5.03;100.00
43119;BME280;28729;49.838;8.650;2022-12-07T22:03:44;99449.25;;;5.03;100.00
43119;BME280;28729;49.838;8.650;2022-12-07T22:07:47;99455.94;;;5.07;100.00
43119;BME280;28729;49.838;8.650;2022-12-07T22:11:49;99446.47;;;5.10;100.00
43119;BME280;28729;49.838;8.650;2022-12-07T22:15:50;99439.56;;;5.07;100.00
43119;BME280;28729;49.838;8.650;2022-12-07T22:19:52;99444.63;;;5.03;100.00
43119;BME280;28729;49.838;8.650;2022-12-07T22:23:54;99449.03;;;5.05;100.00
43119;BME280;28729;49.838;8.650;2022-12-07T22:27:57;99446.09;;;5.06;100.00
43119;BME280;28729;49.838;8.650;2022-12-07T22:31:58;99447.94;;;5.06;100.00
43119;BME280;28729;49.838;8.650;2022-12-07T22:36:10;99434.72;;;5.09;100.00
43119;BME280;28729;49.838;8.650;2022-12-07T22:40:12;99431.75;;;5.11;100.00
43119;BME280;28729;49.838;8.650;2022-12-07T22:44:14;99433.88;;;5.09;100.00
43119;BME280;28729;49.838;8.650;2022-12-07T22:48:16;99425.69;;;5.09;100.00
43119;BME280;28729;49.838;8.650;2022-12-07T22:52:17;99418.97;;;5.05;100.00
43119;BME280;28729;49.838;8.650;2022-12-07T22:56:20;99418.97;;;5.05;100.00
43119;BME280;28729;49.838;8.650;2022-12-07T23:00:21;99411.88;;;5.03;100.00
43119;BME280;28729;49.838;8.650;2022-12-07T23:04:23;99404.72;;;5.02;100.00
43119;BME280;28729;49.838;8.650;2022-12-07T23:08:25;99400.16;;;4.96;100.00
43119;BME280;28729;49.838;8.650;2022-12-07T23:12:27;99401.66;;;4.92;100.00